sensor_id;sensor_type;location;lat;lon;timestamp;temperature;humidity
15288;DHT22;7745;48.708;9.026;2023-04-25T00:01:37;8.40;99.90
15288;DHT22;7745;48.708;9.026;2023-04-25T00:04:04;8.40;99.90
15288;DHT22;7745;48.708;9.026;2023-04-25T00:06:31;8.40;99.90
15288;DHT22;7745;48.708;9.026;2023-04-25T00:08:58;8.40;99.90
15288;DHT22;7745;48.708;9.026;2023-04-25T00:11:25;8.40;99.90
15288;DHT22;7745;48.708;9.026;2023-04-25T00:13:52;8.40;99.90
15288;DHT22;7745;48.708;9.026;2023-04-25T00:16:19;8.30;99.90
15288;DHT22;7745;48.708;9.026;2023-04-25T00:18:47;8.30;99.90
15288;DHT22;7745;48.708;9.026;2023-04-25T00:21:17;8.40;99.90
15288;DHT22;7745;48.708;9.026;2023-04-25T00:23:45;8.30;99.90
15288;DHT22;7745;48.708;9.026;2023-04-25T00:26:12;8.30;99.90
15288;DHT22;7745;48.708;9.026;2023-04-25T00:28:39;8.40;99.90
15288;DHT22;7745;48.708;9.026;2023-04-25T00:31:06;8.30;99.90
15288;DHT22;7745;48.708;9.026;2023-04-25T00:33:32;8.30;99.90
15288;DHT22;7745;48.708;9.026;2023-04-25T00:36:01;8.30;99.90
15288;DHT22;7745;48.708;9.026;2023-04-25T00:38:28;8.30;99.90
15288;DHT22;7745;48.708;9.026;2023-04-25T00:40:55;8.20;99.90
15288;DHT22;7745;48.708;9.026;2023-04-25T00:43:24;8.20;99.90
15288;DHT22;7745;48.708;9.026;2023-04-25T00:45:52;8.20;99.90
15288;DHT22;7745;48.708;9.026;2023-04-25T00:48:21;8.20;99.90
15288;DHT22;7745;48.708;9.026;2023-04-25T00:50:51;8.20;99.90
15288;DHT22;7745;48.708;9.026;2023-04-25T00:53:20;8.20;99.90
15288;DHT22;7745;48.708;9.026;2023-04-25T00:55:47;8.30;99.90
15288;DHT22;7745;48.708;9.026;2023-04-25T00:58:16;8.30;99.90
15288;DHT22;7745;48.708;9.026;2023-04-25T01:00:44;8.20;99.90
15288;DHT22;7745;48.708;9.026;2023-04-25T01:03:12;8.40;99.90
15288;DHT22;7745;48.708;9.026;2023-04-25T01:05:39;8.30;99.90
15288;DHT22;7745;48.708;9.026;2023-04-25T01:08:07;8.30;99.90
15288;DHT22;7745;48.708;9.026;2023-04-25T01:10:36;8.30;99.90
15288;DHT22;7745;48.708;9.026;2023-04-25T01:13:03;8.30;99.90
15288;DHT22;7745;48.708;9.026;2023-04-25T01:15:29;8.30;99.90
15288;DHT22;7745;48.708;9.026;2023-04-25T01:17:57;8.30;99.90
15288;DHT22;7745;48.708;9.026;2023-04-25T01:20:24;8.30;99.90
15288;DHT22;7745;48.708;9.026;2023-04-25T01:22:53;8.30;99.90
15288;DHT22;7745;48.708;9.026;2023-04-25T01:25:21;8.20;99.90
15288;DHT22;7745;48.708;9.026;2023-04-25T01:27:49;8.20;99.90
15288;DHT22;7745;48.708;9.026;2023-04-25T01:30:15;8.20;99.90
15288;DHT22;7745;48.708;9.026;2023-04-25T01:32:43;8.20;99.90
15288;DHT22;7745;48.708;9.026;2023-04-25T01:35:11;8.20;99.90
15288;DHT22;7745;48.708;9.026;2023-04-25T01:37:38;8.10;99.90
15288;DHT22;7745;48.708;9.026;2023-04-25T01:40:09;8.10;99.90
15288;DHT22;7745;48.708;9.026;2023-04-25T01:42:37;8.00;99.90
15288;DHT22;7745;48.708;9.026;2023-04-25T01:45:04;8.00;99.90
15288;DHT22;7745;48.708;9.026;2023-04-25T01:47:32;7.90;99.90
15288;DHT22;7745;48.708;9.026;2023-04-25T01:50:00;7.90;99.90
15288;DHT22;7745;48.708;9.026;2023-04-25T01:52:27;7.90;99.90
15288;DHT22;7745;48.708;9.026;2023-04-25T01:54:54;7.90;99.90
15288;DHT22;7745;48.708;9.026;2023-04-25T01:57:22;7.90;99.90
15288;DHT22;7745;48.708;9.026;2023-04-25T01:59:50;7.90;99.90
15288;DHT22;7745;48.708;9.026;2023-04-25T02:02:17;7.80;99.90
15288;DHT22;7745;48.708;9.026;2023-04-25T02:04:44;7.80;99.90
15288;DHT22;7745;48.708;9.026;2023-04-25T02:07:10;7.70;99.90
15288;DHT22;7745;48.708;9.026;2023-04-25T02:09:37;7.70;99.90
15288;DHT22;7745;48.708;9.026;2023-04-25T02:12:04;7.70;99.90
15288;DHT22;7745;48.708;9.026;2023-04-25T02:14:32;7.70;99.90
15288;DHT22;7745;48.708;9.026;2023-04-25T02:16:59;7.70;99.90
15288;DHT22;7745;48.708;9.026;2023-04-25T02:19:48;7.60;99.90
15288;DHT22;7745;48.708;9.026;2023-04-25T02:22:15;7.60;99.90
15288;DHT22;7745;48.708;9.026;2023-04-25T02:24:42;7.60;99.90
15288;DHT22;7745;48.708;9.026;2023-04-25T02:27:09;7.60;99.90
15288;DHT22;7745;48.708;9.026;2023-04-25T02:29:38;7.60;99.90
15288;DHT22;7745;48.708;9.026;2023-04-25T02:32:05;7.60;99.90
15288;DHT22;7745;48.708;9.026;2023-04-25T02:34:31;7.50;99.90
15288;DHT22;7745;48.708;9.026;2023-04-25T02:36:58;7.50;99.90
15288;DHT22;7745;48.708;9.026;2023-04-25T02:39:25;7.50;99.90
15288;DHT22;7745;48.708;9.026;2023-04-25T02:41:52;7.50;99.90
15288;DHT22;7745;48.708;9.026;2023-04-25T02:44:19;7.60;99.90
15288;DHT22;7745;48.708;9.026;2023-04-25T02:46:47;7.60;99.90
15288;DHT22;7745;48.708;9.026;2023-04-25T02:49:14;7.60;99.90
15288;DHT22;7745;48.708;9.026;2023-04-25T02:51:41;7.60;99.90
15288;DHT22;7745;48.708;9.026;2023-04-25T02:54:08;7.60;99.90
15288;DHT22;7745;48.708;9.026;2023-04-25T02:56:34;7.50;99.90
15288;DHT22;7745;48.708;9.026;2023-04-25T02:59:01;7.50;99.90
15288;DHT22;7745;48.708;9.026;2023-04-25T03:01:28;7.60;99.90
15288;DHT22;7745;48.708;9.026;2023-04-25T03:03:56;7.60;99.90
15288;DHT22;7745;48.708;9.026;2023-04-25T03:06:23;7.60;99.90
15288;DHT22;7745;48.708;9.026;2023-04-25T03:08:49;7.60;99.90
15288;DHT22;7745;48.708;9.026;2023-04-25T03:11:16;7.60;99.90
15288;DHT22;7745;48.708;9.026;2023-04-25T03:13:45;7.60;99.90
15288;DHT22;7745;48.708;9.026;2023-04-25T03:16:12;7.60;99.90
15288;DHT22;7745;48.708;9.026;2023-04-25T03:18:39;7.70;99.90
15288;DHT22;7745;48.708;9.026;2023-04-25T03:21:07;7.70;99.90
15288;DHT22;7745;48.708;9.026;2023-04-25T03:23:34;7.60;99.90
15288;DHT22;7745;48.708;9.026;2023-04-25T03:26:00;7.70;99.90
15288;DHT22;7745;48.708;9.026;2023-04-25T03:28:27;7.60;99.90
15288;DHT22;7745;48.708;9.026;2023-04-25T03:30:54;7.60;99.90
15288;DHT22;7745;48.708;9.026;2023-04-25T03:33:21;7.60;99.90
15288;DHT22;7745;48.708;9.026;2023-04-25T03:35:48;7.60;99.90
15288;DHT22;7745;48.708;9.026;2023-04-25T03:38:17;7.50;99.90
15288;DHT22;7745;48.708;9.026;2023-04-25T03:40:44;7.50;99.90
15288;DHT22;7745;48.708;9.026;2023-04-25T03:43:11;7.50;99.90
15288;DHT22;7745;48.708;9.026;2023-04-25T03:45:37;7.50;99.90
15288;DHT22;7745;48.708;9.026;2023-04-25T03:48:04;7.40;99.90
15288;DHT22;7745;48.708;9.026;2023-04-25T03:50:31;7.40;99.90
15288;DHT22;7745;48.708;9.026;2023-04-25T03:52:58;7.50;99.90
15288;DHT22;7745;48.708;9.026;2023-04-25T03:55:26;7.50;99.90
15288;DHT22;7745;48.708;9.026;2023-04-25T03:57:53;7.50;99.90
15288;DHT22;7745;48.708;9.026;2023-04-25T04:00:19;7.50;99.90
15288;DHT22;7745;48.708;9.026;2023-04-25T04:02:46;7.60;99.90
15288;DHT22;7745;48.708;9.026;2023-04-25T04:05:13;7.60;99.90
15288;DHT22;7745;48.708;9.026;2023-04-25T04:07:40;7.60;99.90
15288;DHT22;7745;48.708;9.026;2023-04-25T04:10:08;7.60;99.90
15288;DHT22;7745;48.708;9.026;2023-04-25T04:12:36;7.50;99.90
15288;DHT22;7745;48.708;9.026;2023-04-25T04:15:04;7.50;99.90
15288;DHT22;7745;48.708;9.026;2023-04-25T04:17:33;7.50;99.90
15288;DHT22;7745;48.708;9.026;2023-04-25T04:20:00;7.50;99.90
15288;DHT22;7745;48.708;9.026;2023-04-25T04:22:26;7.40;99.90
15288;DHT22;7745;48.708;9.026;2023-04-25T04:24:53;7.40;99.90
15288;DHT22;7745;48.708;9.026;2023-04-25T04:27:21;7.40;99.90
15288;DHT22;7745;48.708;9.026;2023-04-25T04:29:49;7.30;99.90
15288;DHT22;7745;48.708;9.026;2023-04-25T04:32:17;7.30;99.90
15288;DHT22;7745;48.708;9.026;2023-04-25T04:34:44;7.30;99.90
15288;DHT22;7745;48.708;9.026;2023-04-25T04:37:12;7.30;99.90
15288;DHT22;7745;48.708;9.026;2023-04-25T04:39:40;7.20;99.90
15288;DHT22;7745;48.708;9.026;2023-04-25T04:42:06;7.20;99.90
15288;DHT22;7745;48.708;9.026;2023-04-25T04:44:34;7.20;99.90
15288;DHT22;7745;48.708;9.026;2023-04-25T04:47:02;7.20;99.90
15288;DHT22;7745;48.708;9.026;2023-04-25T04:49:31;7.20;99.90
15288;DHT22;7745;48.708;9.026;2023-04-25T04:51:58;7.40;99.90
15288;DHT22;7745;48.708;9.026;2023-04-25T04:54:26;7.30;99.90
15288;DHT22;7745;48.708;9.026;2023-04-25T04:56:53;7.30;99.90
15288;DHT22;7745;48.708;9.026;2023-04-25T04:59:20;7.50;99.90
15288;DHT22;7745;48.708;9.026;2023-04-25T05:01:47;7.50;99.90
15288;DHT22;7745;48.708;9.026;2023-04-25T05:04:16;7.60;99.90
15288;DHT22;7745;48.708;9.026;2023-04-25T05:06:52;7.60;99.90
15288;DHT22;7745;48.708;9.026;2023-04-25T05:09:21;7.70;99.90
15288;DHT22;7745;48.708;9.026;2023-04-25T05:11:51;7.90;99.90
15288;DHT22;7745;48.708;9.026;2023-04-25T05:14:17;7.80;99.90
15288;DHT22;7745;48.708;9.026;2023-04-25T05:16:44;7.80;99.90
15288;DHT22;7745;48.708;9.026;2023-04-25T05:19:11;8.00;99.90
15288;DHT22;7745;48.708;9.026;2023-04-25T05:21:39;7.80;99.90
15288;DHT22;7745;48.708;9.026;2023-04-25T05:24:08;7.80;99.90
15288;DHT22;7745;48.708;9.026;2023-04-25T05:26:35;7.80;99.90
15288;DHT22;7745;48.708;9.026;2023-04-25T05:29:02;7.80;99.90
15288;DHT22;7745;48.708;9.026;2023-04-25T05:31:29;7.80;99.90
15288;DHT22;7745;48.708;9.026;2023-04-25T05:33:56;7.70;99.90
15288;DHT22;7745;48.708;9.026;2023-04-25T05:36:23;7.90;99.90
15288;DHT22;7745;48.708;9.026;2023-04-25T05:38:51;7.80;99.90
15288;DHT22;7745;48.708;9.026;2023-04-25T05:41:17;7.80;99.90
15288;DHT22;7745;48.708;9.026;2023-04-25T05:43:45;8.00;99.90
15288;DHT22;7745;48.708;9.026;2023-04-25T05:46:14;7.90;99.90
15288;DHT22;7745;48.708;9.026;2023-04-25T05:48:41;7.90;99.90
15288;DHT22;7745;48.708;9.026;2023-04-25T05:51:07;7.90;99.90
15288;DHT22;7745;48.708;9.026;2023-04-25T05:53:34;8.10;99.90
15288;DHT22;7745;48.708;9.026;2023-04-25T05:56:02;7.80;99.90
15288;DHT22;7745;48.708;9.026;2023-04-25T05:58:29;7.80;99.90
15288;DHT22;7745;48.708;9.026;2023-04-25T06:00:56;7.80;99.90
15288;DHT22;7745;48.708;9.026;2023-04-25T06:03:23;7.80;99.90
15288;DHT22;7745;48.708;9.026;2023-04-25T06:05:50;7.70;99.90
15288;DHT22;7745;48.708;9.026;2023-04-25T06:08:17;7.80;99.90
15288;DHT22;7745;48.708;9.026;2023-04-25T06:10:44;7.70;99.90
15288;DHT22;7745;48.708;9.026;2023-04-25T06:13:12;7.70;99.90
15288;DHT22;7745;48.708;9.026;2023-04-25T06:15:39;7.70;99.90
15288;DHT22;7745;48.708;9.026;2023-04-25T06:18:06;7.80;99.90
15288;DHT22;7745;48.708;9.026;2023-04-25T06:20:33;7.70;99.90
15288;DHT22;7745;48.708;9.026;2023-04-25T06:23:00;7.70;99.90
15288;DHT22;7745;48.708;9.026;2023-04-25T06:25:27;7.60;99.90
15288;DHT22;7745;48.708;9.026;2023-04-25T06:27:53;7.70;99.90
15288;DHT22;7745;48.708;9.026;2023-04-25T06:30:22;7.60;99.90
15288;DHT22;7745;48.708;9.026;2023-04-25T06:32:51;7.60;99.90
15288;DHT22;7745;48.708;9.026;2023-04-25T06:35:18;7.60;99.90
15288;DHT22;7745;48.708;9.026;2023-04-25T06:37:45;7.60;99.90
15288;DHT22;7745;48.708;9.026;2023-04-25T06:40:12;7.60;99.90
15288;DHT22;7745;48.708;9.026;2023-04-25T06:42:38;7.60;99.90
15288;DHT22;7745;48.708;9.026;2023-04-25T06:45:06;7.70;99.90
15288;DHT22;7745;48.708;9.026;2023-04-25T06:47:34;7.70;99.90
15288;DHT22;7745;48.708;9.026;2023-04-25T06:50:01;7.60;99.90
15288;DHT22;7745;48.708;9.026;2023-04-25T06:52:28;7.70;99.90
15288;DHT22;7745;48.708;9.026;2023-04-25T06:54:55;7.70;99.90
15288;DHT22;7745;48.708;9.026;2023-04-25T06:57:22;7.70;99.90
15288;DHT22;7745;48.708;9.026;2023-04-25T06:59:49;7.70;99.90
15288;DHT22;7745;48.708;9.026;2023-04-25T07:02:16;7.80;99.90
15288;DHT22;7745;48.708;9.026;2023-04-25T07:04:44;7.70;99.90
15288;DHT22;7745;48.708;9.026;2023-04-25T07:07:12;7.80;99.90
15288;DHT22;7745;48.708;9.026;2023-04-25T07:09:39;7.80;99.90
15288;DHT22;7745;48.708;9.026;2023-04-25T07:12:06;7.80;99.90
15288;DHT22;7745;48.708;9.026;2023-04-25T07:14:33;7.80;99.90
15288;DHT22;7745;48.708;9.026;2023-04-25T07:17:01;7.80;99.90
15288;DHT22;7745;48.708;9.026;2023-04-25T07:19:28;8.00;99.90
15288;DHT22;7745;48.708;9.026;2023-04-25T07:21:56;7.90;99.90
15288;DHT22;7745;48.708;9.026;2023-04-25T07:24:25;7.80;99.90
15288;DHT22;7745;48.708;9.026;2023-04-25T07:26:52;7.70;99.90
15288;DHT22;7745;48.708;9.026;2023-04-25T07:29:19;7.70;99.90
15288;DHT22;7745;48.708;9.026;2023-04-25T07:31:46;7.70;99.90
15288;DHT22;7745;48.708;9.026;2023-04-25T07:34:13;7.60;99.90
15288;DHT22;7745;48.708;9.026;2023-04-25T07:36:40;7.70;99.90
15288;DHT22;7745;48.708;9.026;2023-04-25T07:39:08;7.60;99.90
15288;DHT22;7745;48.708;9.026;2023-04-25T07:41:35;7.70;99.90
15288;DHT22;7745;48.708;9.026;2023-04-25T07:44:02;7.70;99.90
15288;DHT22;7745;48.708;9.026;2023-04-25T07:46:29;7.60;99.90
15288;DHT22;7745;48.708;9.026;2023-04-25T07:48:55;7.70;99.90
15288;DHT22;7745;48.708;9.026;2023-04-25T07:51:22;7.70;99.90
15288;DHT22;7745;48.708;9.026;2023-04-25T07:53:49;7.70;99.90
15288;DHT22;7745;48.708;9.026;2023-04-25T07:56:17;7.70;99.90
15288;DHT22;7745;48.708;9.026;2023-04-25T07:58:58;7.80;99.90
15288;DHT22;7745;48.708;9.026;2023-04-25T08:01:26;7.70;99.90
15288;DHT22;7745;48.708;9.026;2023-04-25T08:03:54;7.80;99.90
15288;DHT22;7745;48.708;9.026;2023-04-25T08:06:21;7.80;99.90
15288;DHT22;7745;48.708;9.026;2023-04-25T08:08:47;7.90;99.90
15288;DHT22;7745;48.708;9.026;2023-04-25T08:11:14;7.90;99.90
15288;DHT22;7745;48.708;9.026;2023-04-25T08:13:42;7.90;99.90
15288;DHT22;7745;48.708;9.026;2023-04-25T08:16:09;7.90;99.90
15288;DHT22;7745;48.708;9.026;2023-04-25T08:18:36;8.00;99.90
15288;DHT22;7745;48.708;9.026;2023-04-25T08:21:06;7.90;99.90
15288;DHT22;7745;48.708;9.026;2023-04-25T08:23:34;7.90;99.90
15288;DHT22;7745;48.708;9.026;2023-04-25T08:26:02;7.90;99.90
15288;DHT22;7745;48.708;9.026;2023-04-25T08:28:30;7.90;99.90
15288;DHT22;7745;48.708;9.026;2023-04-25T08:30:58;7.90;99.90
15288;DHT22;7745;48.708;9.026;2023-04-25T08:33:25;7.80;99.90
15288;DHT22;7745;48.708;9.026;2023-04-25T08:35:52;7.90;99.90
15288;DHT22;7745;48.708;9.026;2023-04-25T08:38:18;7.90;99.90
15288;DHT22;7745;48.708;9.026;2023-04-25T08:40:49;7.90;99.90
15288;DHT22;7745;48.708;9.026;2023-04-25T08:43:18;7.90;99.90
15288;DHT22;7745;48.708;9.026;2023-04-25T08:45:46;7.90;99.90
15288;DHT22;7745;48.708;9.026;2023-04-25T08:48:16;8.00;99.90
15288;DHT22;7745;48.708;9.026;2023-04-25T08:50:46;8.10;99.90
15288;DHT22;7745;48.708;9.026;2023-04-25T08:53:16;8.00;99.90
15288;DHT22;7745;48.708;9.026;2023-04-25T08:55:46;8.00;99.90
15288;DHT22;7745;48.708;9.026;2023-04-25T08:58:13;7.90;99.90
15288;DHT22;7745;48.708;9.026;2023-04-25T09:00:40;7.90;99.90
15288;DHT22;7745;48.708;9.026;2023-04-25T09:03:07;7.90;99.90
15288;DHT22;7745;48.708;9.026;2023-04-25T09:05:36;7.90;99.90
15288;DHT22;7745;48.708;9.026;2023-04-25T09:08:03;7.80;99.90
15288;DHT22;7745;48.708;9.026;2023-04-25T09:10:31;7.80;99.90
15288;DHT22;7745;48.708;9.026;2023-04-25T09:13:05;7.80;99.90
15288;DHT22;7745;48.708;9.026;2023-04-25T09:15:47;7.70;99.90
15288;DHT22;7745;48.708;9.026;2023-04-25T09:18:13;7.50;99.90
15288;DHT22;7745;48.708;9.026;2023-04-25T09:20:43;7.50;99.90
15288;DHT22;7745;48.708;9.026;2023-04-25T09:23:10;7.50;99.90
15288;DHT22;7745;48.708;9.026;2023-04-25T09:25:37;7.50;99.90
15288;DHT22;7745;48.708;9.026;2023-04-25T09:28:06;7.60;99.90
15288;DHT22;7745;48.708;9.026;2023-04-25T09:30:34;7.40;99.90
15288;DHT22;7745;48.708;9.026;2023-04-25T09:33:05;7.30;99.90
15288;DHT22;7745;48.708;9.026;2023-04-25T09:35:37;7.20;99.90
15288;DHT22;7745;48.708;9.026;2023-04-25T09:38:11;7.30;99.90
15288;DHT22;7745;48.708;9.026;2023-04-25T09:40:44;7.10;99.90
15288;DHT22;7745;48.708;9.026;2023-04-25T09:43:19;7.10;99.90
15288;DHT22;7745;48.708;9.026;2023-04-25T09:45:47;7.20;99.90
15288;DHT22;7745;48.708;9.026;2023-04-25T09:48:18;7.20;99.90
15288;DHT22;7745;48.708;9.026;2023-04-25T09:51:04;7.20;99.90
15288;DHT22;7745;48.708;9.026;2023-04-25T09:53:33;7.20;99.90
15288;DHT22;7745;48.708;9.026;2023-04-25T09:56:04;7.10;99.90
15288;DHT22;7745;48.708;9.026;2023-04-25T09:58:33;7.20;99.90
15288;DHT22;7745;48.708;9.026;2023-04-25T10:01:09;7.20;99.90
15288;DHT22;7745;48.708;9.026;2023-04-25T10:03:39;7.20;99.90
15288;DHT22;7745;48.708;9.026;2023-04-25T10:06:10;7.20;99.90
15288;DHT22;7745;48.708;9.026;2023-04-25T10:08:42;7.30;99.90
15288;DHT22;7745;48.708;9.026;2023-04-25T10:11:23;7.50;99.90
15288;DHT22;7745;48.708;9.026;2023-04-25T10:14:11;7.50;99.90
15288;DHT22;7745;48.708;9.026;2023-04-25T10:16:40;7.50;99.90
15288;DHT22;7745;48.708;9.026;2023-04-25T10:19:08;7.60;99.90
15288;DHT22;7745;48.708;9.026;2023-04-25T10:21:37;7.70;99.90
15288;DHT22;7745;48.708;9.026;2023-04-25T10:24:08;7.60;99.90
15288;DHT22;7745;48.708;9.026;2023-04-25T10:26:35;7.80;99.90
15288;DHT22;7745;48.708;9.026;2023-04-25T10:29:03;7.70;99.90
15288;DHT22;7745;48.708;9.026;2023-04-25T10:31:30;7.70;99.90
15288;DHT22;7745;48.708;9.026;2023-04-25T10:33:58;7.70;99.90
15288;DHT22;7745;48.708;9.026;2023-04-25T10:36:25;7.70;99.90
15288;DHT22;7745;48.708;9.026;2023-04-25T10:38:54;7.80;99.90
15288;DHT22;7745;48.708;9.026;2023-04-25T10:41:24;7.80;99.90
15288;DHT22;7745;48.708;9.026;2023-04-25T10:43:59;7.80;99.90
15288;DHT22;7745;48.708;9.026;2023-04-25T10:46:28;7.80;99.90
15288;DHT22;7745;48.708;9.026;2023-04-25T10:48:58;7.90;99.90
15288;DHT22;7745;48.708;9.026;2023-04-25T10:51:26;7.70;99.90
15288;DHT22;7745;48.708;9.026;2023-04-25T10:53:59;7.60;99.90
15288;DHT22;7745;48.708;9.026;2023-04-25T10:56:30;7.80;99.90
15288;DHT22;7745;48.708;9.026;2023-04-25T10:59:05;7.70;99.90
15288;DHT22;7745;48.708;9.026;2023-04-25T11:01:41;7.80;99.90
15288;DHT22;7745;48.708;9.026;2023-04-25T11:04:21;7.70;99.90
15288;DHT22;7745;48.708;9.026;2023-04-25T11:07:00;7.90;99.90
15288;DHT22;7745;48.708;9.026;2023-04-25T11:09:32;8.00;99.90
15288;DHT22;7745;48.708;9.026;2023-04-25T11:12:03;8.00;99.90
15288;DHT22;7745;48.708;9.026;2023-04-25T11:14:31;8.00;99.90
15288;DHT22;7745;48.708;9.026;2023-04-25T11:16:58;7.90;99.90
15288;DHT22;7745;48.708;9.026;2023-04-25T11:19:29;8.00;99.90
15288;DHT22;7745;48.708;9.026;2023-04-25T11:21:59;7.90;99.90
15288;DHT22;7745;48.708;9.026;2023-04-25T11:24:28;7.90;99.90
15288;DHT22;7745;48.708;9.026;2023-04-25T11:26:57;7.70;99.90
15288;DHT22;7745;48.708;9.026;2023-04-25T11:29:26;7.80;99.90
15288;DHT22;7745;48.708;9.026;2023-04-25T11:31:54;7.70;99.90
15288;DHT22;7745;48.708;9.026;2023-04-25T11:34:23;7.90;99.90
15288;DHT22;7745;48.708;9.026;2023-04-25T11:36:50;8.00;99.90
15288;DHT22;7745;48.708;9.026;2023-04-25T11:39:20;8.20;99.90
15288;DHT22;7745;48.708;9.026;2023-04-25T11:41:48;8.40;99.90
15288;DHT22;7745;48.708;9.026;2023-04-25T11:44:16;8.60;99.90
15288;DHT22;7745;48.708;9.026;2023-04-25T11:46:47;8.60;99.90
15288;DHT22;7745;48.708;9.026;2023-04-25T11:49:15;8.60;99.90
15288;DHT22;7745;48.708;9.026;2023-04-25T11:52:06;8.70;99.90
15288;DHT22;7745;48.708;9.026;2023-04-25T11:54:35;8.60;99.90
15288;DHT22;7745;48.708;9.026;2023-04-25T11:57:02;8.60;99.90
15288;DHT22;7745;48.708;9.026;2023-04-25T11:59:29;8.30;99.90
15288;DHT22;7745;48.708;9.026;2023-04-25T12:01:57;8.20;99.90
15288;DHT22;7745;48.708;9.026;2023-04-25T12:04:30;8.20;99.90
15288;DHT22;7745;48.708;9.026;2023-04-25T12:06:57;8.50;99.90
15288;DHT22;7745;48.708;9.026;2023-04-25T12:09:29;8.40;99.90
15288;DHT22;7745;48.708;9.026;2023-04-25T12:11:58;8.50;99.90
15288;DHT22;7745;48.708;9.026;2023-04-25T12:14:29;8.60;99.90
15288;DHT22;7745;48.708;9.026;2023-04-25T12:16:59;8.60;99.90
15288;DHT22;7745;48.708;9.026;2023-04-25T12:19:31;8.60;99.90
15288;DHT22;7745;48.708;9.026;2023-04-25T12:21:58;8.60;99.90
15288;DHT22;7745;48.708;9.026;2023-04-25T12:24:25;8.50;99.90
15288;DHT22;7745;48.708;9.026;2023-04-25T12:26:57;8.50;99.90
15288;DHT22;7745;48.708;9.026;2023-04-25T12:29:26;8.80;99.90
15288;DHT22;7745;48.708;9.026;2023-04-25T12:31:54;8.70;99.90
15288;DHT22;7745;48.708;9.026;2023-04-25T12:34:23;8.80;99.90
15288;DHT22;7745;48.708;9.026;2023-04-25T12:36:51;8.80;99.90
15288;DHT22;7745;48.708;9.026;2023-04-25T12:39:19;8.80;99.90
15288;DHT22;7745;48.708;9.026;2023-04-25T12:41:47;8.90;99.90
15288;DHT22;7745;48.708;9.026;2023-04-25T12:44:14;8.90;99.90
15288;DHT22;7745;48.708;9.026;2023-04-25T12:46:41;9.10;99.90
15288;DHT22;7745;48.708;9.026;2023-04-25T12:49:08;9.10;99.90
15288;DHT22;7745;48.708;9.026;2023-04-25T12:51:36;9.10;99.90
15288;DHT22;7745;48.708;9.026;2023-04-25T12:54:08;9.20;99.90
15288;DHT22;7745;48.708;9.026;2023-04-25T12:56:36;9.30;99.90
15288;DHT22;7745;48.708;9.026;2023-04-25T12:59:08;9.30;99.90
15288;DHT22;7745;48.708;9.026;2023-04-25T13:01:36;9.50;99.90
15288;DHT22;7745;48.708;9.026;2023-04-25T13:04:04;9.60;99.90
15288;DHT22;7745;48.708;9.026;2023-04-25T13:06:37;9.70;99.90
15288;DHT22;7745;48.708;9.026;2023-04-25T13:09:04;9.80;99.90
15288;DHT22;7745;48.708;9.026;2023-04-25T13:11:33;9.60;99.90
15288;DHT22;7745;48.708;9.026;2023-04-25T13:14:01;9.70;99.90
15288;DHT22;7745;48.708;9.026;2023-04-25T13:16:31;9.70;99.90
15288;DHT22;7745;48.708;9.026;2023-04-25T13:19:02;9.90;99.90
15288;DHT22;7745;48.708;9.026;2023-04-25T13:21:30;10.00;99.90
15288;DHT22;7745;48.708;9.026;2023-04-25T13:23:59;9.90;99.90
15288;DHT22;7745;48.708;9.026;2023-04-25T13:26:28;10.00;99.90
15288;DHT22;7745;48.708;9.026;2023-04-25T13:28:55;9.90;99.90
15288;DHT22;7745;48.708;9.026;2023-04-25T13:31:22;10.00;99.90
15288;DHT22;7745;48.708;9.026;2023-04-25T13:33:50;10.20;99.90
15288;DHT22;7745;48.708;9.026;2023-04-25T13:36:16;10.20;99.90
15288;DHT22;7745;48.708;9.026;2023-04-25T13:38:43;10.40;99.90
15288;DHT22;7745;48.708;9.026;2023-04-25T13:41:14;10.30;99.90
15288;DHT22;7745;48.708;9.026;2023-04-25T13:43:44;10.40;99.90
15288;DHT22;7745;48.708;9.026;2023-04-25T13:46:12;10.50;99.90
15288;DHT22;7745;48.708;9.026;2023-04-25T13:48:40;10.30;99.90
15288;DHT22;7745;48.708;9.026;2023-04-25T13:51:15;10.40;99.90
15288;DHT22;7745;48.708;9.026;2023-04-25T13:53:43;10.30;99.90
15288;DHT22;7745;48.708;9.026;2023-04-25T13:56:18;10.40;99.90
15288;DHT22;7745;48.708;9.026;2023-04-25T13:58:45;10.40;99.90
15288;DHT22;7745;48.708;9.026;2023-04-25T14:01:12;10.50;99.90
15288;DHT22;7745;48.708;9.026;2023-04-25T14:03:39;10.60;99.90
15288;DHT22;7745;48.708;9.026;2023-04-25T14:06:07;10.50;99.90
15288;DHT22;7745;48.708;9.026;2023-04-25T14:08:34;10.50;99.90
15288;DHT22;7745;48.708;9.026;2023-04-25T14:11:01;10.60;99.90
15288;DHT22;7745;48.708;9.026;2023-04-25T14:13:30;10.60;99.90
15288;DHT22;7745;48.708;9.026;2023-04-25T14:19:19;10.30;99.90
15288;DHT22;7745;48.708;9.026;2023-04-25T14:21:46;10.30;99.90
15288;DHT22;7745;48.708;9.026;2023-04-25T14:24:13;10.40;99.90
15288;DHT22;7745;48.708;9.026;2023-04-25T14:26:40;10.50;99.90
15288;DHT22;7745;48.708;9.026;2023-04-25T14:29:09;10.60;99.90
15288;DHT22;7745;48.708;9.026;2023-04-25T14:31:37;10.50;99.90
15288;DHT22;7745;48.708;9.026;2023-04-25T14:34:04;10.60;99.90
15288;DHT22;7745;48.708;9.026;2023-04-25T14:36:34;10.70;99.90
15288;DHT22;7745;48.708;9.026;2023-04-25T14:39:01;10.80;99.90
15288;DHT22;7745;48.708;9.026;2023-04-25T14:41:30;10.80;99.90
15288;DHT22;7745;48.708;9.026;2023-04-25T14:43:57;10.60;99.90
15288;DHT22;7745;48.708;9.026;2023-04-25T14:46:25;10.70;99.90
15288;DHT22;7745;48.708;9.026;2023-04-25T14:48:52;10.60;99.90
15288;DHT22;7745;48.708;9.026;2023-04-25T14:51:21;10.50;99.90
15288;DHT22;7745;48.708;9.026;2023-04-25T14:53:47;10.70;99.90
15288;DHT22;7745;48.708;9.026;2023-04-25T14:56:15;10.80;99.90
15288;DHT22;7745;48.708;9.026;2023-04-25T14:58:42;11.00;99.90
15288;DHT22;7745;48.708;9.026;2023-04-25T15:01:09;11.10;99.90
15288;DHT22;7745;48.708;9.026;2023-04-25T15:03:38;11.10;99.90
15288;DHT22;7745;48.708;9.026;2023-04-25T15:06:05;11.00;99.90
15288;DHT22;7745;48.708;9.026;2023-04-25T15:08:32;10.90;99.90
15288;DHT22;7745;48.708;9.026;2023-04-25T15:10:59;10.90;99.90
15288;DHT22;7745;48.708;9.026;2023-04-25T15:13:27;10.80;99.90
15288;DHT22;7745;48.708;9.026;2023-04-25T15:15:54;10.70;99.90
15288;DHT22;7745;48.708;9.026;2023-04-25T15:18:22;10.60;99.90
15288;DHT22;7745;48.708;9.026;2023-04-25T15:20:51;10.60;99.90
15288;DHT22;7745;48.708;9.026;2023-04-25T15:23:20;10.60;99.90
15288;DHT22;7745;48.708;9.026;2023-04-25T15:25:51;10.80;99.90
15288;DHT22;7745;48.708;9.026;2023-04-25T15:28:32;10.80;99.90
15288;DHT22;7745;48.708;9.026;2023-04-25T15:31:00;10.70;99.90
15288;DHT22;7745;48.708;9.026;2023-04-25T15:33:27;10.70;99.90
15288;DHT22;7745;48.708;9.026;2023-04-25T15:35:55;10.70;99.90
15288;DHT22;7745;48.708;9.026;2023-04-25T15:38:23;10.70;99.90
15288;DHT22;7745;48.708;9.026;2023-04-25T15:40:49;10.70;99.90
15288;DHT22;7745;48.708;9.026;2023-04-25T15:43:18;10.70;99.90
15288;DHT22;7745;48.708;9.026;2023-04-25T15:45:44;10.90;99.90
15288;DHT22;7745;48.708;9.026;2023-04-25T15:48:11;11.00;99.90
15288;DHT22;7745;48.708;9.026;2023-04-25T15:50:38;11.10;99.90
15288;DHT22;7745;48.708;9.026;2023-04-25T15:53:06;11.10;99.90
15288;DHT22;7745;48.708;9.026;2023-04-25T15:55:33;11.10;99.90
15288;DHT22;7745;48.708;9.026;2023-04-25T15:58:00;11.00;99.90
15288;DHT22;7745;48.708;9.026;2023-04-25T16:00:27;11.00;99.90
15288;DHT22;7745;48.708;9.026;2023-04-25T16:02:55;10.80;99.90
15288;DHT22;7745;48.708;9.026;2023-04-25T16:05:22;10.70;99.90
15288;DHT22;7745;48.708;9.026;2023-04-25T16:07:50;10.70;99.90
15288;DHT22;7745;48.708;9.026;2023-04-25T16:10:19;10.90;99.90